sensor_id;sensor_type;location;lat;lon;timestamp;temperature;humidity
2999;DHT22;1509;51.964;7.628;2024-01-30T00:02:16;7.90;99.90
2999;DHT22;1509;51.964;7.628;2024-01-30T00:04:42;7.70;99.90
2999;DHT22;1509;51.964;7.628;2024-01-30T00:07:07;7.80;99.90
2999;DHT22;1509;51.964;7.628;2024-01-30T00:09:33;7.60;99.90
2999;DHT22;1509;51.964;7.628;2024-01-30T00:11:59;7.80;99.90
2999;DHT22;1509;51.964;7.628;2024-01-30T00:14:27;7.80;99.90
2999;DHT22;1509;51.964;7.628;2024-01-30T00:16:53;7.80;99.90
2999;DHT22;1509;51.964;7.628;2024-01-30T00:19:19;7.80;99.90
2999;DHT22;1509;51.964;7.628;2024-01-30T00:21:44;7.80;99.90
2999;DHT22;1509;51.964;7.628;2024-01-30T00:24:10;7.80;99.90
2999;DHT22;1509;51.964;7.628;2024-01-30T00:26:35;7.70;99.90
2999;DHT22;1509;51.964;7.628;2024-01-30T00:29:01;7.60;99.90
2999;DHT22;1509;51.964;7.628;2024-01-30T00:31:27;7.50;99.90
2999;DHT22;1509;51.964;7.628;2024-01-30T00:33:53;7.50;99.90
2999;DHT22;1509;51.964;7.628;2024-01-30T00:36:18;7.20;99.90
2999;DHT22;1509;51.964;7.628;2024-01-30T00:38:44;7.40;99.90
2999;DHT22;1509;51.964;7.628;2024-01-30T00:41:09;7.40;99.90
2999;DHT22;1509;51.964;7.628;2024-01-30T00:43:35;7.40;99.90
2999;DHT22;1509;51.964;7.628;2024-01-30T00:46:01;7.40;99.90
2999;DHT22;1509;51.964;7.628;2024-01-30T00:48:27;7.50;99.90
2999;DHT22;1509;51.964;7.628;2024-01-30T00:50:55;7.40;99.90
2999;DHT22;1509;51.964;7.628;2024-01-30T00:53:20;7.40;99.90
2999;DHT22;1509;51.964;7.628;2024-01-30T00:55:46;7.40;99.90
2999;DHT22;1509;51.964;7.628;2024-01-30T00:58:12;7.40;99.90
2999;DHT22;1509;51.964;7.628;2024-01-30T01:00:37;7.30;99.90
2999;DHT22;1509;51.964;7.628;2024-01-30T01:03:03;7.30;99.90
2999;DHT22;1509;51.964;7.628;2024-01-30T01:05:29;7.40;99.90
2999;DHT22;1509;51.964;7.628;2024-01-30T01:07:54;7.30;99.90
2999;DHT22;1509;51.964;7.628;2024-01-30T01:10:20;7.30;99.90
2999;DHT22;1509;51.964;7.628;2024-01-30T01:12:46;7.50;99.90
2999;DHT22;1509;51.964;7.628;2024-01-30T01:15:12;7.30;99.90
2999;DHT22;1509;51.964;7.628;2024-01-30T01:17:38;7.20;99.90
2999;DHT22;1509;51.964;7.628;2024-01-30T01:20:05;7.30;99.90
2999;DHT22;1509;51.964;7.628;2024-01-30T01:22:32;7.30;99.90
2999;DHT22;1509;51.964;7.628;2024-01-30T01:24:58;7.30;99.90
2999;DHT22;1509;51.964;7.628;2024-01-30T01:27:24;7.20;99.90
2999;DHT22;1509;51.964;7.628;2024-01-30T01:29:50;7.20;99.90
2999;DHT22;1509;51.964;7.628;2024-01-30T01:32:16;7.20;99.90
2999;DHT22;1509;51.964;7.628;2024-01-30T01:34:41;7.20;99.90
2999;DHT22;1509;51.964;7.628;2024-01-30T01:37:07;7.30;99.90
2999;DHT22;1509;51.964;7.628;2024-01-30T01:39:33;7.30;99.90
2999;DHT22;1509;51.964;7.628;2024-01-30T01:41:59;7.30;99.90
2999;DHT22;1509;51.964;7.628;2024-01-30T01:44:24;7.30;99.90
2999;DHT22;1509;51.964;7.628;2024-01-30T01:46:51;7.30;99.90
2999;DHT22;1509;51.964;7.628;2024-01-30T01:49:18;7.30;99.90
2999;DHT22;1509;51.964;7.628;2024-01-30T01:51:45;7.30;99.90
2999;DHT22;1509;51.964;7.628;2024-01-30T01:54:14;7.30;99.90
2999;DHT22;1509;51.964;7.628;2024-01-30T01:56:42;7.30;99.90
2999;DHT22;1509;51.964;7.628;2024-01-30T01:59:08;7.30;99.90
2999;DHT22;1509;51.964;7.628;2024-01-30T02:01:35;7.40;99.90
2999;DHT22;1509;51.964;7.628;2024-01-30T02:04:01;7.40;99.90
2999;DHT22;1509;51.964;7.628;2024-01-30T02:06:27;7.30;99.90
2999;DHT22;1509;51.964;7.628;2024-01-30T02:08:54;7.40;99.90
2999;DHT22;1509;51.964;7.628;2024-01-30T02:11:20;7.40;99.90
2999;DHT22;1509;51.964;7.628;2024-01-30T02:13:47;7.40;99.90
2999;DHT22;1509;51.964;7.628;2024-01-30T02:16:12;7.40;99.90
2999;DHT22;1509;51.964;7.628;2024-01-30T02:18:38;7.50;99.90
2999;DHT22;1509;51.964;7.628;2024-01-30T02:21:08;7.50;99.90
2999;DHT22;1509;51.964;7.628;2024-01-30T02:23:34;7.40;99.90
2999;DHT22;1509;51.964;7.628;2024-01-30T02:26:00;7.50;99.90
2999;DHT22;1509;51.964;7.628;2024-01-30T02:28:26;7.50;99.90
2999;DHT22;1509;51.964;7.628;2024-01-30T02:30:51;7.50;99.90
2999;DHT22;1509;51.964;7.628;2024-01-30T02:33:17;7.70;99.90
2999;DHT22;1509;51.964;7.628;2024-01-30T02:35:42;7.50;99.90
2999;DHT22;1509;51.964;7.628;2024-01-30T02:38:08;7.60;99.90
2999;DHT22;1509;51.964;7.628;2024-01-30T02:40:34;7.60;99.90
2999;DHT22;1509;51.964;7.628;2024-01-30T02:43:01;7.80;99.90
2999;DHT22;1509;51.964;7.628;2024-01-30T02:45:27;7.60;99.90
2999;DHT22;1509;51.964;7.628;2024-01-30T02:47:52;7.60;99.90
2999;DHT22;1509;51.964;7.628;2024-01-30T02:50:18;7.60;99.90
2999;DHT22;1509;51.964;7.628;2024-01-30T02:52:44;7.60;99.90
2999;DHT22;1509;51.964;7.628;2024-01-30T02:55:10;7.90;99.90
2999;DHT22;1509;51.964;7.628;2024-01-30T02:57:36;7.60;99.90
2999;DHT22;1509;51.964;7.628;2024-01-30T03:00:02;7.60;99.90
2999;DHT22;1509;51.964;7.628;2024-01-30T03:02:29;7.60;99.90
2999;DHT22;1509;51.964;7.628;2024-01-30T03:04:57;7.70;99.90
2999;DHT22;1509;51.964;7.628;2024-01-30T03:07:23;7.60;99.90
2999;DHT22;1509;51.964;7.628;2024-01-30T03:09:49;7.60;99.90
2999;DHT22;1509;51.964;7.628;2024-01-30T03:12:14;7.50;99.90
2999;DHT22;1509;51.964;7.628;2024-01-30T03:14:40;7.60;99.90
2999;DHT22;1509;51.964;7.628;2024-01-30T03:17:06;7.60;99.90
2999;DHT22;1509;51.964;7.628;2024-01-30T03:19:31;7.50;99.90
2999;DHT22;1509;51.964;7.628;2024-01-30T03:21:57;7.50;99.90
2999;DHT22;1509;51.964;7.628;2024-01-30T03:24:22;7.50;99.90
2999;DHT22;1509;51.964;7.628;2024-01-30T03:26:48;7.50;99.90
2999;DHT22;1509;51.964;7.628;2024-01-30T03:29:13;7.70;99.90
2999;DHT22;1509;51.964;7.628;2024-01-30T03:31:39;7.50;99.90
2999;DHT22;1509;51.964;7.628;2024-01-30T03:34:05;7.40;99.90
2999;DHT22;1509;51.964;7.628;2024-01-30T03:36:30;7.50;99.90
2999;DHT22;1509;51.964;7.628;2024-01-30T03:38:58;7.50;99.90
2999;DHT22;1509;51.964;7.628;2024-01-30T03:41:24;7.50;99.90
2999;DHT22;1509;51.964;7.628;2024-01-30T03:43:50;7.50;99.90
2999;DHT22;1509;51.964;7.628;2024-01-30T03:46:15;7.50;99.90
2999;DHT22;1509;51.964;7.628;2024-01-30T03:48:41;7.50;99.90
2999;DHT22;1509;51.964;7.628;2024-01-30T03:51:07;7.40;99.90
2999;DHT22;1509;51.964;7.628;2024-01-30T03:53:32;7.40;99.90
2999;DHT22;1509;51.964;7.628;2024-01-30T03:55:58;7.50;99.90
2999;DHT22;1509;51.964;7.628;2024-01-30T03:58:23;7.40;99.90
2999;DHT22;1509;51.964;7.628;2024-01-30T04:00:49;7.40;99.90
2999;DHT22;1509;51.964;7.628;2024-01-30T04:03:15;7.40;99.90
2999;DHT22;1509;51.964;7.628;2024-01-30T04:05:41;7.40;99.90
2999;DHT22;1509;51.964;7.628;2024-01-30T04:08:07;7.30;99.90
2999;DHT22;1509;51.964;7.628;2024-01-30T04:10:33;7.30;99.90
2999;DHT22;1509;51.964;7.628;2024-01-30T04:12:59;7.30;99.90
2999;DHT22;1509;51.964;7.628;2024-01-30T04:15:25;7.30;99.90
2999;DHT22;1509;51.964;7.628;2024-01-30T04:17:51;7.30;99.90
2999;DHT22;1509;51.964;7.628;2024-01-30T04:20:17;7.20;99.90
2999;DHT22;1509;51.964;7.628;2024-01-30T04:22:46;7.30;99.90
2999;DHT22;1509;51.964;7.628;2024-01-30T04:25:13;7.30;99.90
2999;DHT22;1509;51.964;7.628;2024-01-30T04:27:39;7.30;99.90
2999;DHT22;1509;51.964;7.628;2024-01-30T04:30:05;7.30;99.90
2999;DHT22;1509;51.964;7.628;2024-01-30T04:32:32;7.30;99.90
2999;DHT22;1509;51.964;7.628;2024-01-30T04:34:58;7.10;99.90
2999;DHT22;1509;51.964;7.628;2024-01-30T04:37:23;7.30;99.90
2999;DHT22;1509;51.964;7.628;2024-01-30T04:39:49;7.30;99.90
2999;DHT22;1509;51.964;7.628;2024-01-30T04:42:15;7.20;99.90
2999;DHT22;1509;51.964;7.628;2024-01-30T04:44:40;7.20;99.90
2999;DHT22;1509;51.964;7.628;2024-01-30T04:47:06;7.20;99.90
2999;DHT22;1509;51.964;7.628;2024-01-30T04:49:34;7.20;99.90
2999;DHT22;1509;51.964;7.628;2024-01-30T04:52:00;7.20;99.90
2999;DHT22;1509;51.964;7.628;2024-01-30T04:54:25;7.20;99.90
2999;DHT22;1509;51.964;7.628;2024-01-30T04:56:51;7.20;99.90
2999;DHT22;1509;51.964;7.628;2024-01-30T04:59:17;7.10;99.90
2999;DHT22;1509;51.964;7.628;2024-01-30T05:01:42;7.30;99.90
2999;DHT22;1509;51.964;7.628;2024-01-30T05:04:09;7.20;99.90
2999;DHT22;1509;51.964;7.628;2024-01-30T05:06:34;7.20;99.90
2999;DHT22;1509;51.964;7.628;2024-01-30T05:09:00;7.20;99.90
2999;DHT22;1509;51.964;7.628;2024-01-30T05:11:25;7.10;99.90
2999;DHT22;1509;51.964;7.628;2024-01-30T05:13:51;7.10;99.90
2999;DHT22;1509;51.964;7.628;2024-01-30T05:16:17;7.20;99.90
2999;DHT22;1509;51.964;7.628;2024-01-30T05:18:43;7.10;99.90
2999;DHT22;1509;51.964;7.628;2024-01-30T05:21:08;7.10;99.90
2999;DHT22;1509;51.964;7.628;2024-01-30T05:23:35;7.10;99.90
2999;DHT22;1509;51.964;7.628;2024-01-30T05:26:01;7.10;99.90
2999;DHT22;1509;51.964;7.628;2024-01-30T05:28:27;7.10;99.90
2999;DHT22;1509;51.964;7.628;2024-01-30T05:30:52;7.10;99.90
2999;DHT22;1509;51.964;7.628;2024-01-30T05:33:18;7.30;99.90
2999;DHT22;1509;51.964;7.628;2024-01-30T05:35:44;7.20;99.90
2999;DHT22;1509;51.964;7.628;2024-01-30T05:38:09;7.20;99.90
2999;DHT22;1509;51.964;7.628;2024-01-30T05:40:35;7.20;99.90
2999;DHT22;1509;51.964;7.628;2024-01-30T05:43:00;7.20;99.90
2999;DHT22;1509;51.964;7.628;2024-01-30T05:45:26;7.40;99.90
2999;DHT22;1509;51.964;7.628;2024-01-30T05:47:52;7.20;99.90
2999;DHT22;1509;51.964;7.628;2024-01-30T05:50:18;7.30;99.90
2999;DHT22;1509;51.964;7.628;2024-01-30T05:52:44;7.30;99.90
2999;DHT22;1509;51.964;7.628;2024-01-30T05:55:11;7.30;99.90
2999;DHT22;1509;51.964;7.628;2024-01-30T05:57:37;7.40;99.90
2999;DHT22;1509;51.964;7.628;2024-01-30T06:00:06;7.30;99.90
2999;DHT22;1509;51.964;7.628;2024-01-30T06:02:32;7.30;99.90
2999;DHT22;1509;51.964;7.628;2024-01-30T06:04:58;7.30;99.90
2999;DHT22;1509;51.964;7.628;2024-01-30T06:07:24;7.30;99.90
2999;DHT22;1509;51.964;7.628;2024-01-30T06:09:49;7.40;99.90
2999;DHT22;1509;51.964;7.628;2024-01-30T06:12:15;7.30;99.90
2999;DHT22;1509;51.964;7.628;2024-01-30T06:14:41;7.40;99.90
2999;DHT22;1509;51.964;7.628;2024-01-30T06:17:08;7.40;99.90
2999;DHT22;1509;51.964;7.628;2024-01-30T06:19:34;7.40;99.90
2999;DHT22;1509;51.964;7.628;2024-01-30T06:22:00;7.40;99.90
2999;DHT22;1509;51.964;7.628;2024-01-30T06:24:26;7.40;99.90
2999;DHT22;1509;51.964;7.628;2024-01-30T06:26:51;7.40;99.90
2999;DHT22;1509;51.964;7.628;2024-01-30T06:29:17;7.40;99.90
2999;DHT22;1509;51.964;7.628;2024-01-30T06:31:42;7.50;99.90
2999;DHT22;1509;51.964;7.628;2024-01-30T06:34:09;7.40;99.90
2999;DHT22;1509;51.964;7.628;2024-01-30T06:36:35;7.40;99.90
2999;DHT22;1509;51.964;7.628;2024-01-30T06:39:02;7.70;99.90
2999;DHT22;1509;51.964;7.628;2024-01-30T06:41:27;7.40;99.90
2999;DHT22;1509;51.964;7.628;2024-01-30T06:43:53;7.60;99.90
2999;DHT22;1509;51.964;7.628;2024-01-30T06:46:19;7.40;99.90
2999;DHT22;1509;51.964;7.628;2024-01-30T06:48:44;7.30;99.90
2999;DHT22;1509;51.964;7.628;2024-01-30T06:51:11;7.40;99.90
2999;DHT22;1509;51.964;7.628;2024-01-30T06:53:37;7.50;99.90
2999;DHT22;1509;51.964;7.628;2024-01-30T06:56:03;7.50;99.90
2999;DHT22;1509;51.964;7.628;2024-01-30T06:58:28;7.50;99.90
2999;DHT22;1509;51.964;7.628;2024-01-30T07:00:54;7.60;99.90
2999;DHT22;1509;51.964;7.628;2024-01-30T07:03:20;7.60;99.90
2999;DHT22;1509;51.964;7.628;2024-01-30T07:05:46;7.60;99.90
2999;DHT22;1509;51.964;7.628;2024-01-30T07:08:11;7.60;99.90
2999;DHT22;1509;51.964;7.628;2024-01-30T07:10:37;7.60;99.90
2999;DHT22;1509;51.964;7.628;2024-01-30T07:13:03;7.60;99.90
2999;DHT22;1509;51.964;7.628;2024-01-30T07:15:30;7.70;99.90
2999;DHT22;1509;51.964;7.628;2024-01-30T07:17:56;7.70;99.90
2999;DHT22;1509;51.964;7.628;2024-01-30T07:20:21;7.70;99.90
2999;DHT22;1509;51.964;7.628;2024-01-30T07:22:47;7.70;99.90
2999;DHT22;1509;51.964;7.628;2024-01-30T07:25:13;7.70;99.90
2999;DHT22;1509;51.964;7.628;2024-01-30T07:27:39;7.60;99.90
2999;DHT22;1509;51.964;7.628;2024-01-30T07:30:05;7.80;99.90
2999;DHT22;1509;51.964;7.628;2024-01-30T07:32:30;7.60;99.90
2999;DHT22;1509;51.964;7.628;2024-01-30T07:34:57;7.60;99.90
2999;DHT22;1509;51.964;7.628;2024-01-30T07:37:25;7.70;99.90
2999;DHT22;1509;51.964;7.628;2024-01-30T07:39:53;7.70;99.90
2999;DHT22;1509;51.964;7.628;2024-01-30T07:42:19;7.60;99.90
2999;DHT22;1509;51.964;7.628;2024-01-30T07:44:44;7.80;99.90
2999;DHT22;1509;51.964;7.628;2024-01-30T07:47:10;8.10;99.90
2999;DHT22;1509;51.964;7.628;2024-01-30T07:49:36;7.90;99.90
2999;DHT22;1509;51.964;7.628;2024-01-30T07:52:01;7.90;99.90
2999;DHT22;1509;51.964;7.628;2024-01-30T07:54:30;7.90;99.90
2999;DHT22;1509;51.964;7.628;2024-01-30T07:56:59;8.00;99.90
2999;DHT22;1509;51.964;7.628;2024-01-30T07:59:24;8.00;99.90
2999;DHT22;1509;51.964;7.628;2024-01-30T08:01:50;8.10;99.90
2999;DHT22;1509;51.964;7.628;2024-01-30T08:04:15;8.20;99.90
2999;DHT22;1509;51.964;7.628;2024-01-30T08:06:41;8.20;99.90
2999;DHT22;1509;51.964;7.628;2024-01-30T08:09:06;8.20;99.90
2999;DHT22;1509;51.964;7.628;2024-01-30T08:11:32;8.40;99.90
2999;DHT22;1509;51.964;7.628;2024-01-30T08:13:58;8.40;99.90
2999;DHT22;1509;51.964;7.628;2024-01-30T08:16:24;8.30;99.90
2999;DHT22;1509;51.964;7.628;2024-01-30T08:18:49;8.60;99.90
2999;DHT22;1509;51.964;7.628;2024-01-30T08:21:15;8.60;99.90
2999;DHT22;1509;51.964;7.628;2024-01-30T08:23:40;8.60;99.90
2999;DHT22;1509;51.964;7.628;2024-01-30T08:26:06;8.70;99.90
2999;DHT22;1509;51.964;7.628;2024-01-30T08:28:32;8.70;99.90
2999;DHT22;1509;51.964;7.628;2024-01-30T08:30:58;8.60;99.90
2999;DHT22;1509;51.964;7.628;2024-01-30T08:33:24;8.70;99.90
2999;DHT22;1509;51.964;7.628;2024-01-30T08:35:49;8.70;99.90
2999;DHT22;1509;51.964;7.628;2024-01-30T08:38:15;9.10;99.90
2999;DHT22;1509;51.964;7.628;2024-01-30T08:40:40;8.90;99.90
2999;DHT22;1509;51.964;7.628;2024-01-30T08:43:06;8.90;99.90
2999;DHT22;1509;51.964;7.628;2024-01-30T08:45:31;9.00;99.90
2999;DHT22;1509;51.964;7.628;2024-01-30T08:47:57;9.10;99.90
2999;DHT22;1509;51.964;7.628;2024-01-30T08:50:23;9.10;99.90
2999;DHT22;1509;51.964;7.628;2024-01-30T08:52:48;9.30;99.90
2999;DHT22;1509;51.964;7.628;2024-01-30T08:55:14;9.10;99.90
2999;DHT22;1509;51.964;7.628;2024-01-30T08:57:40;9.10;99.90
2999;DHT22;1509;51.964;7.628;2024-01-30T09:00:06;9.20;99.90
2999;DHT22;1509;51.964;7.628;2024-01-30T09:02:34;9.20;99.90
2999;DHT22;1509;51.964;7.628;2024-01-30T09:05:00;9.30;99.90
2999;DHT22;1509;51.964;7.628;2024-01-30T09:07:26;9.20;99.90
2999;DHT22;1509;51.964;7.628;2024-01-30T09:09:51;9.40;99.90
2999;DHT22;1509;51.964;7.628;2024-01-30T09:12:17;9.40;99.90
2999;DHT22;1509;51.964;7.628;2024-01-30T09:14:43;9.40;99.90
2999;DHT22;1509;51.964;7.628;2024-01-30T09:17:11;9.50;99.90
2999;DHT22;1509;51.964;7.628;2024-01-30T09:19:37;9.60;99.90
2999;DHT22;1509;51.964;7.628;2024-01-30T09:22:03;9.70;99.90
2999;DHT22;1509;51.964;7.628;2024-01-30T09:24:29;9.70;99.90
2999;DHT22;1509;51.964;7.628;2024-01-30T09:26:54;9.70;99.90
2999;DHT22;1509;51.964;7.628;2024-01-30T09:29:21;9.70;99.90
2999;DHT22;1509;51.964;7.628;2024-01-30T09:31:49;9.70;99.90
2999;DHT22;1509;51.964;7.628;2024-01-30T09:34:15;9.90;99.90
2999;DHT22;1509;51.964;7.628;2024-01-30T09:36:40;9.60;99.90
2999;DHT22;1509;51.964;7.628;2024-01-30T09:39:08;9.70;99.90
2999;DHT22;1509;51.964;7.628;2024-01-30T09:41:49;9.70;99.90
2999;DHT22;1509;51.964;7.628;2024-01-30T09:44:16;10.00;99.90
2999;DHT22;1509;51.964;7.628;2024-01-30T09:46:43;9.80;99.90
2999;DHT22;1509;51.964;7.628;2024-01-30T09:49:09;9.80;99.90
2999;DHT22;1509;51.964;7.628;2024-01-30T09:51:35;9.80;99.90
2999;DHT22;1509;51.964;7.628;2024-01-30T09:54:02;9.80;99.90
2999;DHT22;1509;51.964;7.628;2024-01-30T09:56:28;9.90;99.90
2999;DHT22;1509;51.964;7.628;2024-01-30T09:58:54;9.90;99.90
2999;DHT22;1509;51.964;7.628;2024-01-30T10:01:20;10.10;99.90
2999;DHT22;1509;51.964;7.628;2024-01-30T10:03:46;9.90;99.90
2999;DHT22;1509;51.964;7.628;2024-01-30T10:06:11;10.00;99.90
2999;DHT22;1509;51.964;7.628;2024-01-30T10:08:37;10.00;99.90
2999;DHT22;1509;51.964;7.628;2024-01-30T10:11:03;10.00;99.90
2999;DHT22;1509;51.964;7.628;2024-01-30T10:13:29;10.00;99.90
2999;DHT22;1509;51.964;7.628;2024-01-30T10:15:55;10.10;99.90
2999;DHT22;1509;51.964;7.628;2024-01-30T10:18:22;9.90;99.90
2999;DHT22;1509;51.964;7.628;2024-01-30T10:20:49;9.90;99.90
2999;DHT22;1509;51.964;7.628;2024-01-30T10:23:17;10.00;99.90
2999;DHT22;1509;51.964;7.628;2024-01-30T10:25:44;10.00;99.90
2999;DHT22;1509;51.964;7.628;2024-01-30T10:28:11;10.20;99.90
2999;DHT22;1509;51.964;7.628;2024-01-30T10:30:36;10.10;99.90
2999;DHT22;1509;51.964;7.628;2024-01-30T10:33:02;10.20;99.90
2999;DHT22;1509;51.964;7.628;2024-01-30T10:35:28;10.20;99.90
2999;DHT22;1509;51.964;7.628;2024-01-30T10:37:57;10.40;99.90
2999;DHT22;1509;51.964;7.628;2024-01-30T10:40:27;10.20;99.90
2999;DHT22;1509;51.964;7.628;2024-01-30T10:42:53;10.30;99.90
2999;DHT22;1509;51.964;7.628;2024-01-30T10:45:22;10.40;99.90
2999;DHT22;1509;51.964;7.628;2024-01-30T10:47:53;10.40;99.90
2999;DHT22;1509;51.964;7.628;2024-01-30T10:50:20;10.60;99.90
2999;DHT22;1509;51.964;7.628;2024-01-30T10:52:47;10.70;99.90
2999;DHT22;1509;51.964;7.628;2024-01-30T10:55:14;10.80;99.90
2999;DHT22;1509;51.964;7.628;2024-01-30T10:57:41;10.80;99.90
2999;DHT22;1509;51.964;7.628;2024-01-30T11:00:08;10.90;99.90
2999;DHT22;1509;51.964;7.628;2024-01-30T11:02:45;11.10;99.90
2999;DHT22;1509;51.964;7.628;2024-01-30T11:05:11;11.30;99.90
2999;DHT22;1509;51.964;7.628;2024-01-30T11:07:39;11.40;99.90
2999;DHT22;1509;51.964;7.628;2024-01-30T11:10:06;11.60;99.90
2999;DHT22;1509;51.964;7.628;2024-01-30T11:12:38;11.70;99.90
2999;DHT22;1509;51.964;7.628;2024-01-30T11:15:11;12.00;99.90
2999;DHT22;1509;51.964;7.628;2024-01-30T11:20:26;14.50;99.90
2999;DHT22;1509;51.964;7.628;2024-01-30T11:22:54;15.50;99.90
2999;DHT22;1509;51.964;7.628;2024-01-30T11:25:23;16.00;99.90
2999;DHT22;1509;51.964;7.628;2024-01-30T11:27:52;16.40;99.90
2999;DHT22;1509;51.964;7.628;2024-01-30T11:30:28;16.70;99.90
2999;DHT22;1509;51.964;7.628;2024-01-30T11:33:10;16.60;99.90
2999;DHT22;1509;51.964;7.628;2024-01-30T11:35:40;16.50;99.90
2999;DHT22;1509;51.964;7.628;2024-01-30T11:38:08;16.20;99.90
2999;DHT22;1509;51.964;7.628;2024-01-30T11:40:34;15.40;99.90
2999;DHT22;1509;51.964;7.628;2024-01-30T11:43:01;14.70;99.90
2999;DHT22;1509;51.964;7.628;2024-01-30T11:45:28;14.20;99.90
2999;DHT22;1509;51.964;7.628;2024-01-30T11:47:54;13.80;99.90
2999;DHT22;1509;51.964;7.628;2024-01-30T11:50:21;13.70;99.90
2999;DHT22;1509;51.964;7.628;2024-01-30T11:52:47;13.60;99.90
2999;DHT22;1509;51.964;7.628;2024-01-30T11:55:14;13.40;99.90
2999;DHT22;1509;51.964;7.628;2024-01-30T11:57:40;13.30;99.90
2999;DHT22;1509;51.964;7.628;2024-01-30T12:00:13;13.60;99.90
2999;DHT22;1509;51.964;7.628;2024-01-30T12:02:40;13.20;99.90
2999;DHT22;1509;51.964;7.628;2024-01-30T12:05:06;13.20;99.90
2999;DHT22;1509;51.964;7.628;2024-01-30T12:07:35;13.10;99.90
2999;DHT22;1509;51.964;7.628;2024-01-30T12:10:01;13.00;99.90
2999;DHT22;1509;51.964;7.628;2024-01-30T12:12:28;13.00;99.90
2999;DHT22;1509;51.964;7.628;2024-01-30T12:14:55;12.80;99.90
2999;DHT22;1509;51.964;7.628;2024-01-30T12:17:32;12.90;99.90
2999;DHT22;1509;51.964;7.628;2024-01-30T12:20:08;12.70;99.90
2999;DHT22;1509;51.964;7.628;2024-01-30T12:22:42;12.70;99.90
2999;DHT22;1509;51.964;7.628;2024-01-30T12:25:12;12.60;99.90
2999;DHT22;1509;51.964;7.628;2024-01-30T12:27:39;12.60;99.90
2999;DHT22;1509;51.964;7.628;2024-01-30T12:30:12;12.80;99.90
2999;DHT22;1509;51.964;7.628;2024-01-30T12:32:44;12.60;99.90
2999;DHT22;1509;51.964;7.628;2024-01-30T12:35:17;12.70;99.90
2999;DHT22;1509;51.964;7.628;2024-01-30T12:37:44;12.70;99.90
2999;DHT22;1509;51.964;7.628;2024-01-30T12:40:19;12.60;99.90
2999;DHT22;1509;51.964;7.628;2024-01-30T12:42:46;12.50;99.90
2999;DHT22;1509;51.964;7.628;2024-01-30T12:45:14;12.50;99.90
2999;DHT22;1509;51.964;7.628;2024-01-30T12:47:41;12.50;99.90
2999;DHT22;1509;51.964;7.628;2024-01-30T12:50:06;12.50;99.90
2999;DHT22;1509;51.964;7.628;2024-01-30T12:52:32;12.70;99.90
2999;DHT22;1509;51.964;7.628;2024-01-30T12:54:58;12.50;99.90
2999;DHT22;1509;51.964;7.628;2024-01-30T12:57:24;12.40;99.90
2999;DHT22;1509;51.964;7.628;2024-01-30T12:59:49;12.40;99.90
2999;DHT22;1509;51.964;7.628;2024-01-30T13:02:15;12.40;99.90
2999;DHT22;1509;51.964;7.628;2024-01-30T13:04:41;12.40;99.90
2999;DHT22;1509;51.964;7.628;2024-01-30T13:07:09;12.40;99.90
2999;DHT22;1509;51.964;7.628;2024-01-30T13:09:37;12.10;99.90
2999;DHT22;1509;51.964;7.628;2024-01-30T13:12:03;12.20;99.90
2999;DHT22;1509;51.964;7.628;2024-01-30T13:14:29;12.20;99.90
2999;DHT22;1509;51.964;7.628;2024-01-30T13:16:55;12.30;99.90
2999;DHT22;1509;51.964;7.628;2024-01-30T13:19:20;12.30;99.90
2999;DHT22;1509;51.964;7.628;2024-01-30T13:21:46;12.40;99.90
2999;DHT22;1509;51.964;7.628;2024-01-30T13:24:13;12.50;99.90
2999;DHT22;1509;51.964;7.628;2024-01-30T13:26:42;12.50;99.90
2999;DHT22;1509;51.964;7.628;2024-01-30T13:29:09;12.50;99.90
2999;DHT22;1509;51.964;7.628;2024-01-30T13:31:34;12.60;99.90
2999;DHT22;1509;51.964;7.628;2024-01-30T13:34:00;12.40;99.90
2999;DHT22;1509;51.964;7.628;2024-01-30T13:36:26;12.40;99.90
2999;DHT22;1509;51.964;7.628;2024-01-30T13:38:52;12.50;99.90
2999;DHT22;1509;51.964;7.628;2024-01-30T13:41:17;12.50;99.90
2999;DHT22;1509;51.964;7.628;2024-01-30T13:43:44;12.50;99.90
2999;DHT22;1509;51.964;7.628;2024-01-30T13:46:10;12.20;99.90
2999;DHT22;1509;51.964;7.628;2024-01-30T13:48:35;12.30;99.90
2999;DHT22;1509;51.964;7.628;2024-01-30T13:51:01;12.30;99.90
2999;DHT22;1509;51.964;7.628;2024-01-30T13:53:27;12.20;99.90
2999;DHT22;1509;51.964;7.628;2024-01-30T13:55:52;12.30;99.90
2999;DHT22;1509;51.964;7.628;2024-01-30T13:58:18;12.10;99.90
2999;DHT22;1509;51.964;7.628;2024-01-30T14:00:44;12.20;99.90
2999;DHT22;1509;51.964;7.628;2024-01-30T14:03:09;12.40;99.90
2999;DHT22;1509;51.964;7.628;2024-01-30T14:05:35;12.20;99.90
2999;DHT22;1509;51.964;7.628;2024-01-30T14:08:01;12.20;99.90
2999;DHT22;1509;51.964;7.628;2024-01-30T14:10:26;12.10;99.90
2999;DHT22;1509;51.964;7.628;2024-01-30T14:12:52;12.10;99.90
2999;DHT22;1509;51.964;7.628;2024-01-30T14:15:18;12.00;99.90
2999;DHT22;1509;51.964;7.628;2024-01-30T14:17:44;12.10;99.90
2999;DHT22;1509;51.964;7.628;2024-01-30T14:20:10;12.10;99.90
2999;DHT22;1509;51.964;7.628;2024-01-30T14:22:36;12.10;99.90
2999;DHT22;1509;51.964;7.628;2024-01-30T14:25:02;12.20;99.90
2999;DHT22;1509;51.964;7.628;2024-01-30T14:27:31;12.20;99.90
2999;DHT22;1509;51.964;7.628;2024-01-30T14:29:57;12.10;99.90
2999;DHT22;1509;51.964;7.628;2024-01-30T14:32:23;12.20;99.90
2999;DHT22;1509;51.964;7.628;2024-01-30T14:34:52;12.20;99.90
2999;DHT22;1509;51.964;7.628;2024-01-30T14:37:21;12.20;99.90
2999;DHT22;1509;51.964;7.628;2024-01-30T14:39:48;12.10;99.90
2999;DHT22;1509;51.964;7.628;2024-01-30T14:42:14;12.10;99.90
2999;DHT22;1509;51.964;7.628;2024-01-30T14:44:40;12.00;99.90
2999;DHT22;1509;51.964;7.628;2024-01-30T14:47:06;12.00;99.90
2999;DHT22;1509;51.964;7.628;2024-01-30T14:49:32;12.00;99.90
2999;DHT22;1509;51.964;7.628;2024-01-30T14:51:58;11.90;99.90
2999;DHT22;1509;51.964;7.628;2024-01-30T14:54:26;12.00;99.90
2999;DHT22;1509;51.964;7.628;2024-01-30T14:56:53;12.00;99.90
2999;DHT22;1509;51.964;7.628;2024-01-30T14:59:18;12.00;99.90
2999;DHT22;1509;51.964;7.628;2024-01-30T15:01:44;12.20;99.90
2999;DHT22;1509;51.964;7.628;2024-01-30T15:04:10;12.10;99.90
2999;DHT22;1509;51.964;7.628;2024-01-30T15:06:36;12.10;99.90
2999;DHT22;1509;51.964;7.628;2024-01-30T15:09:02;12.10;99.90
2999;DHT22;1509;51.964;7.628;2024-01-30T15:11:28;12.10;99.90
2999;DHT22;1509;51.964;7.628;2024-01-30T15:13:54;12.10;99.90
2999;DHT22;1509;51.964;7.628;2024-01-30T15:16:19;12.10;99.90
2999;DHT22;1509;51.964;7.628;2024-01-30T15:18:45;12.30;99.90
2999;DHT22;1509;51.964;7.628;2024-01-30T15:21:10;12.10;99.90
2999;DHT22;1509;51.964;7.628;2024-01-30T15:23:36;12.00;99.90
2999;DHT22;1509;51.964;7.628;2024-01-30T15:26:02;11.90;99.90
2999;DHT22;1509;51.964;7.628;2024-01-30T15:28:37;11.90;99.90
2999;DHT22;1509;51.964;7.628;2024-01-30T15:31:04;11.80;99.90
2999;DHT22;1509;51.964;7.628;2024-01-30T15:33:29;11.80;99.90
2999;DHT22;1509;51.964;7.628;2024-01-30T15:35:56;11.80;99.90
2999;DHT22;1509;51.964;7.628;2024-01-30T15:38:22;11.80;99.90
2999;DHT22;1509;51.964;7.628;2024-01-30T15:40:48;11.70;99.90
2999;DHT22;1509;51.964;7.628;2024-01-30T15:43:13;11.60;99.90
2999;DHT22;1509;51.964;7.628;2024-01-30T15:45:39;11.60;99.90
2999;DHT22;1509;51.964;7.628;2024-01-30T15:48:05;11.50;99.90
2999;DHT22;1509;51.964;7.628;2024-01-30T15:50:31;11.50;99.90
2999;DHT22;1509;51.964;7.628;2024-01-30T15:52:57;11.50;99.90
2999;DHT22;1509;51.964;7.628;2024-01-30T15:55:22;11.40;99.90
2999;DHT22;1509;51.964;7.628;2024-01-30T15:57:48;11.30;99.90
2999;DHT22;1509;51.964;7.628;2024-01-30T16:00:14;11.30;99.90
2999;DHT22;1509;51.964;7.628;2024-01-30T16:02:40;11.30;99.90
2999;DHT22;1509;51.964;7.628;2024-01-30T16:05:06;11.30;99.90
2999;DHT22;1509;51.964;7.628;2024-01-30T16:07:34;11.40;99.90
2999;DHT22;1509;51.964;7.628;2024-01-30T16:10:00;11.30;99.90